Time;durP1;ratioP1;P1;durP2;ratioP2;P2;SDS_P1;SDS_P2;PMS_P1;PMS_P2;Temp;Humidity;BMP_temperature;BMP_pressure;BME280_temperature;BME280_humidity;BME280_pressure;Samples;Min_cycle;Max_cycle;Signal;HPM_P1;HPM_P2
2021/04/08 00:00:30;;;;;;;14.95;9.98;;;;;;;4.93;56.61;100360.16;1747824;81;21462;-52
2021/04/08 00:02:59;;;;;;;15.10;9.60;;;;;;;4.88;56.57;100353.57;1747974;82;21190;-51
2021/04/08 00:05:27;;;;;;;16.50;10.43;;;;;;;4.86;56.52;100365.72;1748112;81;21171;-67
2021/04/08 00:07:55;;;;;;;15.05;10.18;;;;;;;4.84;56.55;100380.92;1720896;82;21176;-53
2021/04/08 00:10:23;;;;;;;16.12;10.58;;;;;;;4.82;56.54;100378.72;1724642;81;21126;-51
2021/04/08 00:12:51;;;;;;;15.72;9.68;;;;;;;4.81;56.51;100383.48;1748124;82;21135;-52
2021/04/08 00:15:20;;;;;;;14.50;10.20;;;;;;;4.80;56.50;100377.83;1741067;81;21166;-67
2021/04/08 00:17:47;;;;;;;16.00;10.72;;;;;;;4.78;56.51;100379.13;1697880;81;21581;-67
2021/04/08 00:20:20;;;;;;;16.45;9.90;;;;;;;4.76;56.47;100370.41;1748088;81;21634;-66
2021/04/08 00:22:48;;;;;;;17.27;10.58;;;;;;;4.71;56.45;100374.70;1748419;82;21136;-52
2021/04/08 00:25:16;;;;;;;16.35;10.98;;;;;;;4.65;56.46;100367.66;1730229;81;21564;-64
2021/04/08 00:27:44;;;;;;;12.88;9.18;;;;;;;4.61;56.47;100374.58;1734730;81;21134;-67
2021/04/08 00:30:14;;;;;;;15.00;9.95;;;;;;;4.57;56.42;100387.13;1748399;81;21516;-51
2021/04/08 00:32:41;;;;;;;18.77;11.83;;;;;;;4.54;56.48;100374.50;1748152;82;21151;-67
2021/04/08 00:35:11;;;;;;;17.37;11.30;;;;;;;4.50;56.51;100371.41;1744622;81;21151;-52
2021/04/08 00:37:39;;;;;;;15.65;10.10;;;;;;;4.49;56.54;100380.08;1731502;81;21183;-52
2021/04/08 00:40:10;;;;;;;17.25;10.65;;;;;;;4.45;56.53;100375.23;1715751;82;21166;-52
2021/04/08 00:42:40;;;;;;;;;;;;;;;4.45;56.57;100373.52;1754478;81;21159;-51
2021/04/08 00:45:09;;;;;;;16.85;10.75;;;;;;;4.45;56.54;100363.50;1748123;81;20188;-51
2021/04/08 00:47:37;;;;;;;19.02;10.90;;;;;;;4.39;56.47;100373.44;1720054;82;21170;-66
2021/04/08 00:50:08;;;;;;;16.25;10.38;;;;;;;4.39;56.43;100381.70;1736541;81;21196;-67
2021/04/08 00:52:36;;;;;;;16.75;10.75;;;;;;;4.39;56.43;100390.82;1736740;82;21128;-66
2021/04/08 00:55:07;;;;;;;15.88;10.82;;;;;;;4.36;56.42;100385.13;1744279;81;21133;-51
2021/04/08 00:57:34;;;;;;;20.65;11.43;;;;;;;4.37;56.42;100388.63;1716552;82;21296;-66
2021/04/08 01:00:05;;;;;;;16.05;10.45;;;;;;;4.35;56.41;100394.23;1736574;81;21177;-51
2021/04/08 01:02:33;;;;;;;15.13;10.90;;;;;;;4.34;56.42;100408.98;1747166;82;21262;-66
2021/04/08 01:05:02;;;;;;;17.00;11.08;;;;;;;4.33;56.39;100411.58;1747974;81;21135;-66
2021/04/08 01:07:33;;;;;;;18.07;10.65;;;;;;;4.26;56.51;100411.49;1738015;82;21139;-51
2021/04/08 01:10:05;;;;;;;16.80;10.60;;;;;;;4.26;56.51;100403.67;1747142;81;21095;-51
2021/04/08 01:12:34;;;;;;;16.02;9.75;;;;;;;4.27;56.47;100404.13;1748326;81;21555;-51
2021/04/08 01:15:04;;;;;;;17.45;11.15;;;;;;;4.25;56.39;100421.47;1742731;81;21318;-55
2021/04/08 01:17:37;;;;;;;17.20;10.32;;;;;;;4.23;56.48;100432.70;1748160;82;21179;-51
2021/04/08 01:20:45;;;;;;;15.18;9.93;;;;;;;4.20;56.55;100428.74;1746922;81;21606;-51
2021/04/08 01:23:55;;;;;;;17.95;10.30;;;;;;;4.17;56.54;100437.41;1708116;83;21260;-66
2021/04/08 01:26:54;;;;;;;19.48;11.35;;;;;;;4.12;56.64;100433.44;1748245;81;21571;-66
2021/04/08 01:29:59;;;;;;;17.45;10.93;;;;;;;4.09;56.68;100430.79;1747320;81;21551;-65
2021/04/08 01:32:28;;;;;;;17.70;10.70;;;;;;;4.07;56.78;100433.80;1730062;81;21154;-66
2021/04/08 01:34:59;;;;;;;18.60;11.38;;;;;;;4.02;56.84;100428.94;1712460;82;21155;-66
2021/04/08 01:37:30;;;;;;;14.47;9.90;;;;;;;4.00;56.87;100435.41;1742620;82;21633;-66
2021/04/08 01:39:57;;;;;;;16.55;10.05;;;;;;;3.54;57.72;100442.46;1736472;81;21111;-51
2021/04/08 01:42:26;;;;;;;19.00;12.10;;;;;;;3.24;58.74;100440.66;1700318;83;21147;-65
2021/04/08 01:44:57;;;;;;;18.05;10.85;;;;;;;3.67;58.10;100452.24;1733198;81;21646;-66
2021/04/08 01:47:26;;;;;;;16.00;10.80;;;;;;;3.45;58.25;100464.44;1747267;82;21131;-51
2021/04/08 01:49:54;;;;;;;20.30;11.35;;;;;;;3.25;58.90;100457.13;1743294;81;21180;-51
2021/04/08 01:52:21;;;;;;;15.85;9.20;;;;;;;3.95;57.37;100460.53;1718613;83;21127;-51
2021/04/08 01:54:57;;;;;;;16.37;10.45;;;;;;;4.10;56.83;100475.52;1708776;83;21177;-66
2021/04/08 01:57:26;;;;;;;17.15;10.28;;;;;;;4.13;56.65;100475.58;1691997;84;21145;-66
2021/04/08 01:59:54;;;;;;;16.35;9.78;;;;;;;4.14;56.55;100470.81;1747927;81;21134;-51
2021/04/08 02:02:22;;;;;;;14.50;9.40;;;;;;;4.05;56.30;100474.98;1737427;82;21127;-66
2021/04/08 02:04:49;;;;;;;13.38;8.78;;;;;;;3.97;56.29;100473.56;1748610;81;21138;-66
2021/04/08 02:07:17;;;;;;;13.95;9.05;;;;;;;3.91;56.28;100471.75;1750916;81;21159;-66
2021/04/08 02:09:47;;;;;;;12.50;7.27;;;;;;;3.90;56.24;100487.33;1733294;81;21136;-65
2021/04/08 02:12:15;;;;;;;11.73;8.25;;;;;;;3.93;56.23;100493.89;1737697;82;21107;-51
2021/04/08 02:14:42;;;;;;;15.53;9.95;;;;;;;3.89;56.33;100499.90;1732941;82;21154;-51
2021/04/08 02:17:11;;;;;;;14.13;9.55;;;;;;;3.79;56.33;100503.64;1725980;81;21261;-51
2021/04/08 02:19:39;;;;;;;14.65;10.10;;;;;;;3.91;56.17;100501.70;1737653;81;21147;-50
2021/04/08 02:22:06;;;;;;;14.20;9.25;;;;;;;3.94;56.13;100493.94;1748259;82;21179;-66
2021/04/08 02:24:35;;;;;;;12.93;8.93;;;;;;;3.92;56.14;100496.94;1747196;81;21192;-51
2021/04/08 02:27:04;;;;;;;14.20;9.65;;;;;;;3.92;56.04;100499.95;1663671;85;21153;-51
2021/04/08 02:29:32;;;;;;;15.28;9.05;;;;;;;3.97;56.04;100521.34;1741785;81;21147;-51
2021/04/08 02:32:01;;;;;;;14.70;10.25;;;;;;;4.01;55.99;100513.14;1737173;82;21751;-51
2021/04/08 02:34:29;;;;;;;14.38;9.35;;;;;;;4.11;55.94;100508.54;1747945;81;21144;-51
2021/04/08 02:36:58;;;;;;;12.03;8.65;;;;;;;4.12;55.80;100514.20;1748202;82;21119;-62
2021/04/08 02:39:25;;;;;;;16.57;10.40;;;;;;;4.12;55.69;100511.59;1748284;82;21200;-66
2021/04/08 02:41:53;;;;;;;15.10;10.15;;;;;;;4.16;55.67;100519.91;1747420;82;21313;-51
2021/04/08 02:44:21;;;;;;;15.58;10.55;;;;;;;4.21;55.67;100528.20;1751267;80;21320;-52
2021/04/08 02:46:49;;;;;;;16.30;10.05;;;;;;;4.23;55.65;100530.00;1725782;83;21198;-66
2021/04/08 02:49:17;;;;;;;15.03;9.88;;;;;;;4.23;55.59;100515.66;1737753;81;21584;-51
2021/04/08 02:51:54;;;;;;;14.28;9.28;;;;;;;4.20;55.61;100506.91;1761045;81;21134;-66
2021/04/08 02:54:36;;;;;;;15.23;10.68;;;;;;;4.11;55.60;100517.66;1725282;82;21129;-66
2021/04/08 02:57:05;;;;;;;12.65;8.48;;;;;;;4.12;55.67;100519.82;1707256;84;21551;-51
2021/04/08 02:59:47;;;;;;;12.82;8.90;;;;;;;4.04;55.73;100514.90;1706326;83;21285;-51
2021/04/08 03:02:19;;;;;;;19.95;11.33;;;;;;;4.06;55.68;100514.50;1724705;82;21133;-67
2021/04/08 03:04:49;;;;;;;14.20;10.32;;;;;;;4.09;55.73;100508.94;1707139;83;21180;-66
2021/04/08 03:07:30;;;;;;;15.43;10.23;;;;;;;4.12;55.68;100518.11;1707527;84;21148;-66
2021/04/08 03:09:58;;;;;;;14.58;10.30;;;;;;;4.12;55.65;100531.13;1706429;83;21188;-67
2021/04/08 03:12:25;;;;;;;17.17;11.55;;;;;;;4.11;55.69;100537.60;1697683;83;22195;-66
2021/04/08 03:14:54;;;;;;;18.42;10.98;;;;;;;4.13;55.68;100543.72;1683727;84;21278;-67
2021/04/08 03:17:26;;;;;;;14.25;10.15;;;;;;;4.17;55.73;100546.83;1706646;84;21468;-52
2021/04/08 03:19:54;;;;;;;18.52;10.38;;;;;;;4.18;55.66;100561.61;1707616;83;21580;-67
2021/04/08 03:22:22;;;;;;;16.15;10.98;;;;;;;4.18;55.86;100564.66;1704060;83;21331;-67
2021/04/08 03:24:51;;;;;;;16.15;9.98;;;;;;;4.20;55.76;100562.92;1707392;84;21169;-51
2021/04/08 03:27:20;;;;;;;15.10;9.43;;;;;;;4.20;55.74;100562.92;1706678;84;21167;-51
2021/04/08 03:29:47;;;;;;;12.45;7.95;;;;;;;4.20;55.76;100563.81;1698837;83;21147;-65
2021/04/08 03:32:19;;;;;;;13.72;8.53;;;;;;;4.16;55.72;100560.70;1667121;84;21299;-61
2021/04/08 03:34:48;;;;;;;14.15;8.53;;;;;;;4.19;55.73;100555.98;1707496;84;21137;-66
2021/04/08 03:37:16;;;;;;;12.78;8.28;;;;;;;4.10;55.89;100564.09;1706972;84;21160;-65
2021/04/08 03:39:43;;;;;;;14.45;8.83;;;;;;;4.09;55.94;100567.95;1716062;82;21172;-53
2021/04/08 03:42:14;;;;;;;16.12;9.43;;;;;;;4.04;56.08;100565.69;1694712;85;21176;-53
2021/04/08 03:44:42;;;;;;;11.88;8.20;;;;;;;3.95;56.33;100569.02;1693601;84;21185;-51
2021/04/08 03:47:10;;;;;;;13.55;8.90;;;;;;;4.07;56.29;100569.66;1718053;83;21166;-66
2021/04/08 03:49:38;;;;;;;14.10;9.13;;;;;;;4.13;56.19;100577.17;1717499;83;21171;-67
2021/04/08 03:52:07;;;;;;;14.23;8.63;;;;;;;4.16;56.13;100569.41;1703428;83;21303;-51
2021/04/08 03:54:35;;;;;;;12.60;8.53;;;;;;;4.20;56.13;100565.12;1753021;82;21142;-51
2021/04/08 03:57:05;;;;;;;16.07;9.20;;;;;;;4.24;56.07;100571.25;1751851;80;21150;-52
2021/04/08 03:59:33;;;;;;;;;;;;;;;4.29;56.14;100570.90;1736252;82;21604;-67
2021/04/08 04:02:01;;;;;;;13.93;7.72;;;;;;;4.42;56.03;100569.36;1753635;81;20179;-52
2021/04/08 04:04:28;;;;;;;12.18;8.13;;;;;;;4.53;55.90;100579.55;1753239;82;21855;-52
2021/04/08 04:06:56;;;;;;;13.32;8.53;;;;;;;4.48;55.75;100579.03;1753394;81;21538;-65
2021/04/08 04:09:24;;;;;;;16.10;9.80;;;;;;;4.63;55.73;100582.30;1753333;82;21542;-52
2021/04/08 04:11:52;;;;;;;14.35;9.38;;;;;;;4.73;55.61;100588.97;1749868;82;21129;-65
2021/04/08 04:14:22;;;;;;;12.10;8.48;;;;;;;4.83;55.50;100590.42;1752959;82;21150;-66
2021/04/08 04:16:54;;;;;;;14.95;9.13;;;;;;;4.79;55.12;100596.44;1749990;80;21549;-55
2021/04/08 04:19:24;;;;;;;12.73;7.83;;;;;;;4.84;55.32;100603.50;1753249;82;21110;-52
2021/04/08 04:21:53;;;;;;;13.25;8.18;;;;;;;5.01;55.03;100606.34;1753191;82;21584;-52
2021/04/08 04:24:21;;;;;;;14.18;8.63;;;;;;;5.03;54.63;100614.18;1749326;80;21169;-51
2021/04/08 04:26:50;;;;;;;10.57;7.50;;;;;;;5.02;54.60;100620.25;1753683;82;21142;-66
2021/04/08 04:29:18;;;;;;;12.58;8.45;;;;;;;4.98;54.57;100613.23;1753260;82;21656;-52
2021/04/08 04:31:46;;;;;;;11.65;8.38;;;;;;;5.05;54.58;100622.91;1753395;82;21086;-67
2021/04/08 04:34:14;;;;;;;12.15;8.35;;;;;;;5.16;54.54;100628.27;1748501;80;21165;-66
2021/04/08 04:36:41;;;;;;;14.28;8.13;;;;;;;5.20;54.39;100630.07;1749633;82;21103;-53
2021/04/08 04:39:09;;;;;;;14.13;8.78;;;;;;;5.23;54.20;100634.47;1751144;82;21337;-52
2021/04/08 04:41:38;;;;;;;11.75;8.33;;;;;;;5.37;54.29;100634.20;1753351;82;21517;-52
2021/04/08 04:44:06;;;;;;;13.00;9.18;;;;;;;5.39;54.06;100635.55;1751557;80;21154;-66
2021/04/08 04:46:35;;;;;;;14.03;8.50;;;;;;;5.45;54.04;100631.27;1748421;82;21147;-52
2021/04/08 04:49:03;;;;;;;11.00;8.48;;;;;;;5.45;53.80;100639.10;1747619;81;21168;-67
2021/04/08 04:51:31;;;;;;;13.58;8.88;;;;;;;5.54;53.69;100629.64;1712419;82;21570;-66
2021/04/08 04:53:58;;;;;;;11.80;7.92;;;;;;;5.62;53.75;100635.84;1748042;81;21281;-66
2021/04/08 04:56:29;;;;;;;15.23;9.40;;;;;;;5.64;53.56;100634.13;1747663;81;21124;-67
2021/04/08 04:58:56;;;;;;;11.40;8.28;;;;;;;5.73;53.58;100635.55;1743182;81;21602;-52
2021/04/08 05:01:25;;;;;;;13.00;8.20;;;;;;;5.76;53.52;100635.55;1706784;84;21150;-67
2021/04/08 05:03:53;;;;;;;12.43;7.80;;;;;;;5.89;53.59;100634.39;1747137;81;21614;-67
2021/04/08 05:06:22;;;;;;;11.22;7.47;;;;;;;5.99;53.32;100635.36;1744847;82;21099;-67
2021/04/08 05:08:52;;;;;;;10.60;7.20;;;;;;;6.02;52.96;100640.66;1721055;81;21582;-52
2021/04/08 05:11:20;;;;;;;12.63;8.50;;;;;;;6.06;53.04;100643.34;1736752;81;21148;-66
2021/04/08 05:13:50;;;;;;;12.80;7.75;;;;;;;6.10;52.76;100645.12;1747765;82;21143;-66
2021/04/08 05:16:18;;;;;;;13.95;7.33;;;;;;;6.10;52.87;100642.52;1732453;82;21594;-52
2021/04/08 05:18:47;;;;;;;11.28;7.47;;;;;;;6.20;52.66;100642.16;1746980;81;21156;-67
2021/04/08 05:21:17;;;;;;;14.20;8.08;;;;;;;6.29;52.69;100647.05;1745695;81;21123;-54
2021/04/08 05:23:45;;;;;;;11.63;7.67;;;;;;;6.40;52.65;100658.04;1731786;82;21124;-67
2021/04/08 05:26:13;;;;;;;10.70;7.33;;;;;;;6.48;52.59;100658.10;1747007;82;21135;-53
2021/04/08 05:28:44;;;;;;;12.03;7.33;;;;;;;6.53;52.10;100653.79;1746940;81;21127;-52
2021/04/08 05:31:11;;;;;;;10.80;7.75;;;;;;;6.54;52.02;100649.45;1746648;82;21109;-67
2021/04/08 05:33:40;;;;;;;12.20;7.90;;;;;;;6.65;51.83;100649.09;1736216;82;21167;-66
2021/04/08 05:36:09;;;;;;;14.55;7.97;;;;;;;6.81;51.86;100659.27;1747979;82;21167;-54
2021/04/08 05:38:36;;;;;;;11.48;7.65;;;;;;;6.97;51.57;100664.59;1730618;81;21127;-53
2021/04/08 05:41:04;;;;;;;11.15;7.58;;;;;;;7.12;51.10;100657.27;1743134;82;21176;-53
2021/04/08 05:43:32;;;;;;;12.23;7.90;;;;;;;7.26;50.82;100649.08;1732884;81;21165;-65
2021/04/08 05:46:00;;;;;;;13.58;7.95;;;;;;;7.41;50.19;100631.26;1710938;83;21170;-67
2021/04/08 05:48:28;;;;;;;9.70;6.80;;;;;;;7.58;50.15;100631.78;1738707;82;21270;-65
2021/04/08 05:50:55;;;;;;;10.88;7.00;;;;;;;7.74;49.82;100629.63;1747735;81;21192;-66
2021/04/08 05:53:23;;;;;;;10.13;6.70;;;;;;;7.87;48.77;100625.33;1739144;82;21120;-54
2021/04/08 05:55:50;;;;;;;10.95;7.17;;;;;;;8.08;48.43;100621.45;1743948;81;21143;-53
2021/04/08 05:58:18;;;;;;;9.10;6.22;;;;;;;8.21;47.33;100613.16;1714256;82;21135;-54
2021/04/08 06:00:46;;;;;;;11.63;6.87;;;;;;;8.36;46.98;100623.67;1731209;82;21262;-66
2021/04/08 06:03:13;;;;;;;12.13;6.95;;;;;;;8.51;46.64;100628.50;1747824;82;21119;-54
2021/04/08 06:05:41;;;;;;;10.70;6.78;;;;;;;8.57;46.26;100639.00;1747861;82;21579;-54
2021/04/08 06:08:09;;;;;;;11.20;6.50;;;;;;;8.65;45.64;100641.19;1747888;82;21147;-66
2021/04/08 06:10:38;;;;;;;11.10;6.75;;;;;;;8.80;46.13;100642.07;1747878;81;21591;-54
2021/04/08 06:13:07;;;;;;;10.63;7.20;;;;;;;8.96;45.70;100646.86;1748033;82;21123;-54
2021/04/08 06:15:35;;;;;;;9.03;6.47;;;;;;;9.13;45.32;100649.45;1748315;81;21282;-55
2021/04/08 06:18:04;;;;;;;10.05;6.30;;;;;;;9.22;44.29;100650.75;1747969;82;21128;-54
2021/04/08 06:20:32;;;;;;;8.68;5.45;;;;;;;9.28;43.22;100646.77;1723558;82;21313;-54
2021/04/08 06:23:04;;;;;;;10.90;5.87;;;;;;;9.36;42.66;100645.46;1703812;84;21139;-54
2021/04/08 06:25:32;;;;;;;9.45;5.67;;;;;;;9.49;42.69;100659.42;1747580;81;21163;-54
2021/04/08 06:28:00;;;;;;;10.23;5.70;;;;;;;9.50;42.21;100664.66;1743014;81;21289;-66
2021/04/08 06:30:28;;;;;;;11.43;6.37;;;;;;;9.61;42.23;100663.75;1691893;84;21415;-54
2021/04/08 06:32:56;;;;;;;9.70;5.72;;;;;;;9.69;42.52;100659.80;1747668;81;21282;-66
2021/04/08 06:35:24;;;;;;;8.23;5.47;;;;;;;9.88;43.28;100663.22;1747627;82;21160;-66
2021/04/08 06:37:52;;;;;;;9.30;6.10;;;;;;;9.99;42.66;100674.53;1748682;81;21151;-66
2021/04/08 06:40:21;;;;;;;10.08;6.65;;;;;;;10.11;42.13;100673.63;1747797;81;21193;-54
2021/04/08 06:42:53;;;;;;;9.55;5.87;;;;;;;10.11;41.61;100682.83;1746653;82;21183;-66
2021/04/08 06:45:24;;;;;;;9.75;7.12;;;;;;;10.20;41.23;100685.38;1747804;81;21163;-53
2021/04/08 06:48:00;;;;;;;10.63;6.53;;;;;;;10.33;42.56;100689.26;1712244;83;21146;-54
2021/04/08 06:50:37;;;;;;;11.40;6.00;;;;;;;10.49;42.16;100694.89;1748001;82;21150;-53
2021/04/08 06:53:06;;;;;;;9.45;6.25;;;;;;;10.63;42.13;100689.95;1748127;82;21139;-66
2021/04/08 06:55:34;;;;;;;9.33;6.30;;;;;;;10.77;42.16;100692.05;1753733;81;21127;-54
2021/04/08 06:58:04;;;;;;;11.30;6.45;;;;;;;10.84;40.51;100695.06;1768678;81;21120;-65
2021/04/08 07:00:34;;;;;;;9.23;6.08;;;;;;;10.93;39.99;100686.66;1755482;81;21123;-55
2021/04/08 07:03:06;;;;;;;10.38;7.37;;;;;;;10.94;39.66;100694.53;1748284;82;21590;-54
2021/04/08 07:05:33;;;;;;;8.00;6.08;;;;;;;10.97;39.76;100687.92;1734832;82;21135;-54
2021/04/08 07:08:01;;;;;;;9.98;6.30;;;;;;;11.00;39.96;100693.17;1746697;82;21276;-54
2021/04/08 07:10:31;;;;;;;9.25;5.90;;;;;;;11.08;39.67;100689.13;1747736;81;21452;-53
2021/04/08 07:12:58;;;;;;;9.80;5.95;;;;;;;11.15;40.39;100689.97;1745198;82;21147;-65
2021/04/08 07:15:27;;;;;;;8.73;5.85;;;;;;;11.24;40.09;100691.63;1687590;84;21598;-54
2021/04/08 07:17:56;;;;;;;10.70;5.97;;;;;;;11.38;39.53;100688.42;1746422;81;21140;-54
2021/04/08 07:20:26;;;;;;;7.10;4.90;;;;;;;11.57;39.34;100701.37;1747994;81;21153;-55
2021/04/08 07:23:13;;;;;;;8.00;5.70;;;;;;;11.75;39.48;100708.20;1747329;82;21123;-66
2021/04/08 07:26:04;;;;;;;8.93;5.42;;;;;;;11.83;38.85;100702.39;1748197;81;21539;-65
2021/04/08 07:28:35;;;;;;;7.75;5.30;;;;;;;11.85;37.35;100699.29;1745087;81;21459;-65
2021/04/08 07:31:25;;;;;;;;;;;;;;;11.70;36.12;100701.67;1711386;83;21186;-54
2021/04/08 07:33:58;;;;;;;10.10;5.22;;;;;;;11.76;36.68;100704.67;1692118;82;20163;-54
2021/04/08 07:36:38;;;;;;;7.33;5.33;;;;;;;11.91;35.73;100699.67;1711676;84;21127;-54
2021/04/08 07:39:18;;;;;;;8.35;5.47;;;;;;;12.04;36.80;100703.91;1741602;82;21519;-65
2021/04/08 07:42:03;;;;;;;10.05;5.12;;;;;;;12.25;36.47;100702.32;1746940;82;21135;-54
2021/04/08 07:44:46;;;;;;;7.50;4.95;;;;;;;12.36;35.41;100704.83;1748098;82;21628;-64
2021/04/08 07:47:24;;;;;;;8.08;4.87;;;;;;;12.42;34.60;100700.75;1712351;84;21578;-53
2021/04/08 07:50:14;;;;;;;8.98;5.65;;;;;;;12.40;34.41;100703.86;1730770;81;21184;-53
2021/04/08 07:52:47;;;;;;;6.95;4.92;;;;;;;12.47;35.24;100695.85;1689161;84;21174;-53
2021/04/08 07:55:32;;;;;;;10.28;5.53;;;;;;;12.51;34.50;100689.20;1748050;81;21165;-65
2021/04/08 07:58:16;;;;;;;7.42;5.22;;;;;;;12.55;35.67;100683.84;1748305;82;21125;-53
2021/04/08 08:00:54;;;;;;;7.17;4.85;;;;;;;12.79;36.13;100690.50;1710488;84;21155;-54
2021/04/08 08:03:28;;;;;;;8.63;5.20;;;;;;;13.13;35.87;100684.20;1748102;81;21144;-56
2021/04/08 08:05:59;;;;;;;7.95;5.25;;;;;;;13.43;35.38;100690.73;1748171;81;21192;-67
2021/04/08 08:08:43;;;;;;;7.17;4.90;;;;;;;13.66;34.88;100685.45;1697250;84;21159;-66
2021/04/08 08:11:15;;;;;;;6.72;4.50;;;;;;;13.79;33.72;100692.21;1743513;82;21610;-62
2021/04/08 08:13:51;;;;;;;7.08;4.70;;;;;;;13.70;31.25;100695.03;1746753;81;21179;-54
2021/04/08 08:16:23;;;;;;;6.90;4.35;;;;;;;13.68;30.99;100682.33;1747683;82;21583;-65
2021/04/08 08:18:51;;;;;;;6.37;4.15;;;;;;;13.75;33.00;100694.50;1748500;81;21526;-65
2021/04/08 08:21:30;;;;;;;7.97;4.95;;;;;;;14.00;31.90;100701.05;1748109;82;21154;-54
2021/04/08 08:23:58;;;;;;;6.20;4.10;;;;;;;14.07;31.29;100702.23;1744770;81;21179;-66
2021/04/08 08:26:41;;;;;;;5.72;3.83;;;;;;;14.08;30.48;100709.70;1734355;82;21289;-67
2021/04/08 08:29:17;;;;;;;10.90;4.33;;;;;;;14.11;30.51;100719.79;1697394;84;21127;-55
2021/04/08 08:31:51;;;;;;;6.47;4.30;;;;;;;14.13;30.54;100707.83;1748030;81;21325;-55
2021/04/08 08:34:29;;;;;;;9.53;4.67;;;;;;;14.26;31.11;100714.61;1748068;82;21200;-55
2021/04/08 08:37:02;;;;;;;8.10;4.15;;;;;;;14.52;32.51;100724.19;1718428;83;21127;-65
2021/04/08 08:39:33;;;;;;;8.38;3.62;;;;;;;14.81;30.00;100723.50;1732664;81;21574;-64
2021/04/08 08:42:05;;;;;;;7.85;3.75;;;;;;;14.84;29.62;100729.20;1746672;82;21120;-65
2021/04/08 08:44:33;;;;;;;7.45;3.70;;;;;;;14.75;28.84;100728.09;1744943;82;21119;-65
2021/04/08 08:47:21;;;;;;;6.35;4.00;;;;;;;14.74;29.72;100728.56;1758316;81;21163;-65
2021/04/08 08:50:10;;;;;;;5.72;3.37;;;;;;;14.88;30.29;100722.92;1747885;81;21176;-54
2021/04/08 08:52:40;;;;;;;6.45;4.28;;;;;;;14.85;28.36;100730.47;1761459;81;21150;-65
2021/04/08 08:55:11;;;;;;;;;;;;;;;14.98;29.75;100735.48;1738244;81;21709;-54
2021/04/08 08:57:39;;;;;;;5.75;3.75;;;;;;;15.16;28.67;100740.77;1761711;81;20430;-66
2021/04/08 09:00:12;;;;;;;6.33;4.22;;;;;;;15.20;28.20;100740.25;1761442;80;21162;-65
2021/04/08 09:02:41;;;;;;;5.92;4.03;;;;;;;15.17;28.90;100742.51;1752579;81;21289;-54
2021/04/08 09:07:52;;;;;;;5.20;3.55;;;;;;;14.73;27.24;100746.69;1833090;77;22572;-64
2021/04/08 09:10:25;;;;;;;5.67;3.25;;;;;;;14.55;28.45;100758.09;1768805;80;21159;-54
2021/04/08 09:12:55;;;;;;;6.12;3.50;;;;;;;14.51;28.76;100752.91;1758717;81;21115;-54
2021/04/08 09:15:24;;;;;;;4.53;2.70;;;;;;;14.50;29.38;100745.40;1718706;81;21624;-54
2021/04/08 09:18:00;;;;;;;5.92;2.90;;;;;;;14.86;29.16;100752.56;1741799;81;21597;-54
2021/04/08 09:20:28;;;;;;;4.97;3.58;;;;;;;15.11;28.10;100749.29;1761682;80;21142;-65
2021/04/08 09:23:11;;;;;;;5.08;2.62;;;;;;;15.00;28.29;100754.86;1761414;81;21139;-54
2021/04/08 09:25:55;;;;;;;4.10;2.80;;;;;;;14.88;27.88;100752.07;1761712;81;21309;-55
2021/04/08 09:28:30;;;;;;;5.97;3.30;;;;;;;14.84;27.26;100750.40;1743655;81;21175;-65
2021/04/08 09:31:07;;;;;;;4.20;2.77;;;;;;;14.74;26.57;100743.57;1751801;81;21646;-66
2021/04/08 09:33:54;;;;;;;6.58;2.98;;;;;;;14.55;27.44;100755.44;1724100;83;21836;-54
2021/04/08 09:36:37;;;;;;;4.60;2.77;;;;;;;14.46;27.74;100749.02;1710510;83;21537;-54
2021/04/08 09:39:20;;;;;;;4.78;2.77;;;;;;;14.55;28.46;100750.61;1713236;83;21205;-55
2021/04/08 09:41:58;;;;;;;5.20;2.50;;;;;;;14.79;28.92;100748.31;1678614;85;21190;-65
2021/04/08 09:44:27;;;;;;;3.85;2.42;;;;;;;14.72;27.26;100743.16;1681421;83;21179;-64
2021/04/08 09:47:00;;;;;;;3.65;2.17;;;;;;;14.64;27.16;100751.70;1708607;83;21579;-65
2021/04/08 09:49:43;;;;;;;3.55;2.37;;;;;;;14.74;27.81;100744.46;1720350;83;21631;-65
2021/04/08 09:52:12;;;;;;;5.50;2.25;;;;;;;14.90;28.23;100746.28;1706115;83;21325;-64
2021/04/08 09:54:46;;;;;;;4.33;2.55;;;;;;;15.09;27.22;100749.34;1691432;84;21520;-55
2021/04/08 09:57:37;;;;;;;5.75;2.60;;;;;;;14.84;25.66;100751.72;1705651;83;21284;-55
2021/04/08 10:00:12;;;;;;;3.72;2.42;;;;;;;14.71;26.20;100749.83;1720378;83;21131;-65
2021/04/08 10:03:06;;;;;;;3.80;2.90;;;;;;;14.62;26.07;100751.33;1700975;83;21519;-65
2021/04/08 10:05:42;;;;;;;6.00;2.70;;;;;;;14.45;27.30;100739.33;1695171;83;21189;-65
2021/04/08 10:08:10;;;;;;;4.62;3.10;;;;;;;14.31;27.48;100732.17;1710664;83;21639;-65
2021/04/08 10:10:43;;;;;;;5.70;2.73;;;;;;;14.15;27.93;100739.55;1692005;83;21155;-55
2021/04/08 10:13:27;;;;;;;4.22;2.60;;;;;;;14.09;26.95;100743.21;1691786;84;21813;-66
2021/04/08 10:16:13;;;;;;;3.83;2.22;;;;;;;14.32;26.56;100741.39;1717305;83;21150;-65
2021/04/08 10:18:41;;;;;;;3.58;1.98;;;;;;;14.51;26.23;100744.49;1710669;83;21552;-66
2021/04/08 10:21:14;;;;;;;4.75;2.40;;;;;;;14.61;27.13;100750.44;1700244;83;21320;-55
2021/04/08 10:23:49;;;;;;;3.25;2.00;;;;;;;14.58;26.50;100746.53;1719090;83;21187;-67
2021/04/08 10:26:23;;;;;;;9.43;2.72;;;;;;;14.36;25.85;100748.80;1689142;83;21193;-67
2021/04/08 10:28:54;;;;;;;3.87;2.37;;;;;;;14.27;26.82;100742.83;1705496;83;21146;-55
2021/04/08 10:31:34;;;;;;;5.00;2.27;;;;;;;14.25;26.12;100744.64;1692538;83;21296;-55
2021/04/08 10:34:19;;;;;;;5.08;2.52;;;;;;;14.31;27.43;100753.35;1700804;83;21196;-55
2021/04/08 10:36:53;;;;;;;3.90;2.12;;;;;;;14.37;27.07;100749.22;1728008;83;21178;-67
2021/04/08 10:39:25;;;;;;;5.35;2.12;;;;;;;14.37;26.50;100746.56;1713914;84;21176;-49
2021/04/08 10:42:01;;;;;;;3.75;2.50;;;;;;;14.46;27.26;100752.14;1727940;83;21177;-66
2021/04/08 10:44:36;;;;;;;7.10;2.75;;;;;;;14.51;27.00;100751.58;1713902;83;21151;-66
2021/04/08 10:47:11;;;;;;;4.67;2.37;;;;;;;14.41;27.19;100757.08;1707794;83;21189;-53
2021/04/08 10:49:53;;;;;;;6.00;3.77;;;;;;;14.33;27.62;100748.90;1685830;85;21216;-53
2021/04/08 10:52:30;;;;;;;4.97;2.72;;;;;;;14.29;25.99;100759.98;1710238;83;21183;-65
2021/04/08 10:55:10;;;;;;;5.12;3.08;;;;;;;13.83;26.79;100765.33;1723835;83;21640;-65
2021/04/08 10:57:41;;;;;;;4.10;2.47;;;;;;;13.72;26.37;100762.48;1718401;83;21157;-65
2021/04/08 11:00:11;;;;;;;7.17;2.77;;;;;;;13.70;26.48;100758.98;1700265;84;21137;-54
2021/04/08 11:02:41;;;;;;;5.92;3.15;;;;;;;13.62;28.04;100755.18;1696321;84;21157;-55
2021/04/08 11:05:26;;;;;;;5.37;2.85;;;;;;;13.89;27.76;100767.00;1722636;82;21190;-55
2021/04/08 11:07:58;;;;;;;3.83;2.08;;;;;;;14.17;27.40;100753.62;1719072;83;21578;-55
2021/04/08 11:10:28;;;;;;;4.25;2.25;;;;;;;14.34;26.40;100754.61;1702437;82;21309;-64
2021/04/08 11:12:58;;;;;;;3.83;2.30;;;;;;;14.56;26.29;100751.88;1679226;85;21138;-64
2021/04/08 11:15:32;;;;;;;4.42;2.67;;;;;;;14.88;25.73;100750.75;1712603;82;21603;-54
2021/04/08 11:18:13;;;;;;;6.70;3.55;;;;;;;15.24;26.19;100748.52;1717973;83;21578;-54
2021/04/08 11:20:47;;;;;;;4.92;2.90;;;;;;;15.51;25.03;100748.25;1717546;82;21143;-54
2021/04/08 11:23:22;;;;;;;7.08;3.70;;;;;;;15.62;24.20;100740.02;1716071;83;21639;-54
2021/04/08 11:26:05;;;;;;;4.00;2.42;;;;;;;15.73;24.83;100747.20;1717856;83;21778;-65
2021/04/08 11:28:40;;;;;;;3.15;2.00;;;;;;;15.85;24.34;100743.35;1720188;83;21518;-54
2021/04/08 11:31:15;;;;;;;4.00;2.05;;;;;;;16.03;24.40;100751.27;1754892;81;21159;-65
2021/04/08 11:33:43;;;;;;;;;;;;;;;16.25;24.28;100724.06;1749855;81;21176;-65
2021/04/08 11:36:18;;;;;;;2.90;1.62;;;;;;;16.09;23.58;100732.95;1737365;82;20156;-54
2021/04/08 11:38:46;;;;;;;7.83;4.03;;;;;;;16.33;24.12;100733.15;1744560;82;21131;-54
2021/04/08 11:41:14;;;;;;;5.90;3.50;;;;;;;16.65;23.91;100741.41;1743221;81;21154;-54
2021/04/08 11:43:49;;;;;;;4.95;3.40;;;;;;;17.01;24.05;100735.43;1746797;82;21162;-65
2021/04/08 11:49:19;;;;;;;6.50;4.78;;;;;;;17.67;22.52;100730.94;1826006;77;22651;-64
2021/04/08 11:51:49;;;;;;;4.05;2.58;;;;;;;17.68;21.90;100735.34;1761759;81;21123;-65